createdAt,value
2017-09-25T00:00:34.554Z,16.40
2017-09-25T00:03:02.421Z,15.55
2017-09-25T00:05:30.498Z,16.20
2017-09-25T00:07:58.054Z,15.60
2017-09-25T00:10:25.653Z,16.65
2017-09-25T00:12:53.998Z,17.52
2017-09-25T00:15:21.601Z,17.17
2017-09-25T00:17:49.967Z,14.77
2017-09-25T00:20:18.322Z,16.62
2017-09-25T00:22:45.889Z,13.75
2017-09-25T00:25:13.465Z,14.85
2017-09-25T00:27:41.793Z,16.50
2017-09-25T00:30:09.660Z,15.25
2017-09-25T00:32:37.221Z,16.02
2017-09-25T00:35:04.788Z,17.58
2017-09-25T00:37:32.392Z,15.63
2017-09-25T00:40:00.722Z,14.80
2017-09-25T00:42:28.332Z,15.23
2017-09-25T00:44:56.747Z,15.75
2017-09-25T00:47:25.288Z,15.05
2017-09-25T00:49:52.854Z,14.65
2017-09-25T00:52:22.001Z,16.25
2017-09-25T00:54:49.579Z,15.40
2017-09-25T00:57:17.299Z,16.02
2017-09-25T00:59:56.636Z,17.45
2017-09-25T01:02:27.387Z,15.30
2017-09-25T01:05:00.747Z,16.10
2017-09-25T01:07:28.601Z,15.88
2017-09-25T01:09:56.943Z,17.05
2017-09-25T01:12:24.511Z,16.00
2017-09-25T01:14:52.085Z,15.90
2017-09-25T01:17:20.506Z,19.20
2017-09-25T01:19:48.073Z,15.80
2017-09-25T01:22:15.640Z,16.08
2017-09-25T01:24:43.220Z,16.77
2017-09-25T01:27:10.788Z,19.98
2017-09-25T01:29:38.737Z,19.92
2017-09-25T01:32:06.315Z,16.98
2017-09-25T01:34:33.895Z,15.52
2017-09-25T01:37:02.251Z,16.60
2017-09-25T01:39:29.850Z,15.55
2017-09-25T01:41:57.418Z,16.37
2017-09-25T01:44:24.971Z,15.27
2017-09-25T01:46:52.867Z,15.88
2017-09-25T01:49:20.461Z,16.05
2017-09-25T01:51:48.808Z,15.52
2017-09-25T01:54:16.445Z,15.05
2017-09-25T01:56:44.014Z,14.73
2017-09-25T01:59:11.587Z,16.50
2017-09-25T02:01:39.161Z,14.80
2017-09-25T02:04:06.735Z,15.82
2017-09-25T02:06:35.077Z,16.92
2017-09-25T02:09:02.647Z,14.40
2017-09-25T02:11:30.199Z,15.02
2017-09-25T02:13:58.041Z,17.77
2017-09-25T02:16:25.608Z,14.52
2017-09-25T02:18:53.194Z,14.52
2017-09-25T02:21:21.553Z,14.48
2017-09-25T02:23:49.121Z,17.20
2017-09-25T02:26:16.686Z,13.93
2017-09-25T02:28:44.244Z,12.90
2017-09-25T02:31:11.821Z,12.85
2017-09-25T02:33:40.175Z,13.00
2017-09-25T02:36:07.757Z,13.62
2017-09-25T02:38:35.318Z,12.75
2017-09-25T02:41:03.932Z,14.32
2017-09-25T02:43:32.263Z,13.62
2017-09-25T02:45:59.821Z,19.02
2017-09-25T02:48:27.391Z,16.83
2017-09-25T02:50:54.967Z,12.40
2017-09-25T02:53:22.585Z,14.30
2017-09-25T02:55:50.150Z,13.30
2017-09-25T02:58:17.723Z,12.82
2017-09-25T03:00:45.296Z,12.85
2017-09-25T03:03:13.936Z,13.50
2017-09-25T03:05:41.510Z,11.85
2017-09-25T03:08:09.072Z,12.80
2017-09-25T03:10:36.646Z,15.82
2017-09-25T03:13:04.223Z,12.82
2017-09-25T03:15:32.581Z,12.45
2017-09-25T03:18:00.168Z,13.45
2017-09-25T03:20:27.742Z,13.80
2017-09-25T03:22:55.310Z,13.25
2017-09-25T03:25:22.884Z,12.70
2017-09-25T03:27:50.441Z,12.13
2017-09-25T03:30:18.017Z,12.77
2017-09-25T03:32:45.598Z,11.50
2017-09-25T03:35:13.446Z,11.88
2017-09-25T03:37:41.002Z,13.45
2017-09-25T03:40:08.574Z,13.35
2017-09-25T03:42:36.154Z,13.68
2017-09-25T03:45:04.501Z,12.95
2017-09-25T03:47:32.119Z,12.48
2017-09-25T03:49:59.704Z,13.68
2017-09-25T03:52:27.270Z,14.60
2017-09-25T03:54:55.621Z,11.63
2017-09-25T03:57:23.200Z,11.82
2017-09-25T03:59:50.808Z,10.27
2017-09-25T04:02:18.387Z,12.80
2017-09-25T04:04:45.961Z,12.37
2017-09-25T04:07:13.549Z,11.43
2017-09-25T04:09:41.115Z,9.93
2017-09-25T04:12:08.694Z,11.38
2017-09-25T04:14:37.043Z,10.30
2017-09-25T04:17:04.606Z,10.55
2017-09-25T04:19:32.565Z,10.85
2017-09-25T04:22:00.167Z,10.13
2017-09-25T04:24:28.490Z,13.82
2017-09-25T04:26:56.079Z,10.82
2017-09-25T04:29:24.501Z,11.23
2017-09-25T04:31:52.059Z,11.15
2017-09-25T04:34:19.618Z,11.70
2017-09-25T04:36:47.206Z,10.43
2017-09-25T04:39:15.545Z,10.82
2017-09-25T04:41:43.122Z,12.10
2017-09-25T04:44:10.701Z,12.10
2017-09-25T04:46:38.577Z,10.80
2017-09-25T04:49:06.152Z,11.20
2017-09-25T04:51:33.701Z,9.32
2017-09-25T04:54:01.291Z,11.20
2017-09-25T04:56:29.708Z,12.20
2017-09-25T04:58:57.291Z,9.80
2017-09-25T05:01:24.857Z,11.15
2017-09-25T05:03:52.452Z,11.27
2017-09-25T05:06:20.781Z,11.10
2017-09-25T05:08:48.367Z,10.30
2017-09-25T05:11:15.942Z,14.40
2017-09-25T05:13:44.297Z,11.93
2017-09-25T05:16:11.868Z,10.98
2017-09-25T05:18:39.717Z,11.63
2017-09-25T05:21:07.294Z,11.07
2017-09-25T05:23:35.130Z,10.32
2017-09-25T05:26:02.789Z,10.68
2017-09-25T05:28:30.371Z,10.43
2017-09-25T05:30:57.928Z,9.05
2017-09-25T05:33:25.491Z,9.75
2017-09-25T05:35:53.078Z,10.60
2017-09-25T05:38:20.660Z,9.38
2017-09-25T05:40:48.248Z,10.40
2017-09-25T05:43:15.816Z,10.00
2017-09-25T05:45:43.907Z,8.85
2017-09-25T05:48:12.234Z,10.43
2017-09-25T05:50:39.804Z,10.00
2017-09-25T05:53:07.389Z,10.40
2017-09-25T05:55:34.998Z,10.32
2017-09-25T05:58:02.569Z,9.57
2017-09-25T06:00:30.133Z,9.60
2017-09-25T06:02:57.704Z,9.50
2017-09-25T06:05:25.291Z,10.73
2017-09-25T06:07:53.951Z,9.68
2017-09-25T06:10:21.522Z,12.18
2017-09-25T06:12:49.104Z,10.00
2017-09-25T06:15:17.431Z,9.85
2017-09-25T06:17:44.992Z,9.82
2017-09-25T06:20:13.340Z,10.52
2017-09-25T06:22:40.903Z,10.55
2017-09-25T06:25:08.495Z,10.07
2017-09-25T06:27:36.046Z,9.15
2017-09-25T06:30:03.652Z,10.25
2017-09-25T06:32:31.975Z,11.52
2017-09-25T06:34:59.552Z,10.48
2017-09-25T06:37:27.114Z,12.00
2017-09-25T06:39:54.981Z,12.05
2017-09-25T06:42:22.582Z,12.30
2017-09-25T06:44:50.907Z,10.30
2017-09-25T06:47:18.478Z,12.85
2017-09-25T06:49:46.041Z,11.40
2017-09-25T06:52:13.626Z,10.93
2017-09-25T06:54:41.980Z,11.27
2017-09-25T06:57:09.557Z,12.27
2017-09-25T06:59:37.905Z,12.52
2017-09-25T07:02:05.855Z,13.18
2017-09-25T07:04:33.426Z,12.70
2017-09-25T07:07:01.014Z,12.73
2017-09-25T07:09:28.600Z,12.35
2017-09-25T07:11:56.189Z,12.82
2017-09-25T07:14:23.795Z,13.43
2017-09-25T07:16:52.129Z,14.20
2017-09-25T07:19:19.707Z,16.92
2017-09-25T07:21:47.268Z,14.48
2017-09-25T07:24:14.873Z,18.35
2017-09-25T07:26:42.471Z,14.90
2017-09-25T07:29:10.356Z,15.93
2017-09-25T07:31:37.956Z,16.77
2017-09-25T07:34:06.291Z,17.62
2017-09-25T07:36:33.926Z,19.40
2017-09-25T07:39:01.530Z,19.50
2017-09-25T07:41:29.116Z,19.62
2017-09-25T07:43:56.679Z,19.83
2017-09-25T07:46:24.255Z,20.12
2017-09-25T07:48:51.829Z,26.27
2017-09-25T07:51:19.726Z,23.25
2017-09-25T07:53:47.300Z,26.30
2017-09-25T07:56:15.657Z,21.55
2017-09-25T07:58:43.238Z,21.50
2017-09-25T08:01:11.588Z,22.50
2017-09-25T08:03:39.408Z,22.98
2017-09-25T08:06:06.995Z,21.08
2017-09-25T08:08:34.576Z,21.40
2017-09-25T08:11:02.159Z,20.85
2017-09-25T08:13:30.778Z,20.27
2017-09-25T08:15:58.365Z,24.80
2017-09-25T08:18:25.934Z,25.25
2017-09-25T08:20:53.514Z,24.02
2017-09-25T08:23:21.875Z,20.30
2017-09-25T08:25:49.475Z,20.67
2017-09-25T08:28:17.075Z,25.48
2017-09-25T08:30:44.922Z,22.60
2017-09-25T08:33:12.485Z,24.67
2017-09-25T08:35:40.062Z,21.15
2017-09-25T08:38:07.678Z,24.45
2017-09-25T08:40:35.256Z,24.75
2017-09-25T08:43:02.854Z,22.00
2017-09-25T08:45:30.436Z,24.15
2017-09-25T08:47:58.085Z,27.48
2017-09-25T08:50:25.683Z,23.23
2017-09-25T08:52:53.689Z,23.38
2017-09-25T08:55:22.038Z,23.45
2017-09-25T08:57:49.629Z,26.75
2017-09-25T09:00:18.003Z,28.73
2017-09-25T09:02:46.353Z,25.00
2017-09-25T09:05:13.966Z,23.67
2017-09-25T09:07:41.552Z,24.20
2017-09-25T09:10:09.179Z,24.42
2017-09-25T09:12:36.762Z,23.50
2017-09-25T09:15:04.366Z,23.15
2017-09-25T09:17:31.949Z,20.30
2017-09-25T09:19:59.575Z,23.33
2017-09-25T09:22:27.165Z,23.67
2017-09-25T09:24:54.759Z,23.15
2017-09-25T09:27:22.346Z,24.05
2017-09-25T09:29:49.922Z,22.57
2017-09-25T09:32:17.507Z,23.17
2017-09-25T09:34:45.868Z,23.53
2017-09-25T09:37:14.258Z,22.67
2017-09-25T09:39:42.587Z,21.80
2017-09-25T09:42:10.174Z,22.40
2017-09-25T09:44:37.768Z,23.50
2017-09-25T09:47:05.667Z,19.97
2017-09-25T09:49:33.250Z,21.07
2017-09-25T09:52:00.826Z,16.50
2017-09-25T09:54:28.412Z,14.23
2017-09-25T09:56:56.013Z,15.20
2017-09-25T09:59:23.611Z,13.20
2017-09-25T10:01:51.950Z,13.10
2017-09-25T10:04:19.529Z,10.70
2017-09-25T10:06:47.086Z,11.20
2017-09-25T10:09:14.972Z,11.70
2017-09-25T10:11:42.658Z,9.97
2017-09-25T10:14:10.263Z,9.53
2017-09-25T10:16:37.854Z,10.37
2017-09-25T10:19:06.195Z,9.40
2017-09-25T10:21:33.775Z,9.43
2017-09-25T10:24:01.344Z,10.80
2017-09-25T10:26:29.684Z,10.23
2017-09-25T10:28:57.275Z,11.67
2017-09-25T10:31:25.932Z,9.37
2017-09-25T10:33:53.509Z,8.93
2017-09-25T10:36:21.074Z,10.33
2017-09-25T10:38:49.425Z,9.90
2017-09-25T10:41:17.011Z,15.13
2017-09-25T10:43:45.386Z,11.03
2017-09-25T10:46:12.980Z,9.83
2017-09-25T10:48:40.583Z,8.90
2017-09-25T10:51:08.915Z,10.60
2017-09-25T10:53:36.892Z,8.83
2017-09-25T10:56:04.474Z,10.93
2017-09-25T10:58:32.041Z,9.43
2017-09-25T11:00:59.638Z,9.83
2017-09-25T11:03:27.964Z,8.63
2017-09-25T11:05:55.547Z,9.70
2017-09-25T11:08:23.917Z,9.33
2017-09-25T11:10:51.492Z,8.30
2017-09-25T11:13:19.061Z,8.90
2017-09-25T11:15:47.713Z,10.37
2017-09-25T11:18:15.301Z,10.13
2017-09-25T11:20:43.642Z,9.43
2017-09-25T11:23:11.215Z,8.80
2017-09-25T11:25:38.790Z,9.53
2017-09-25T11:28:06.373Z,9.60
2017-09-25T11:30:34.725Z,8.83
2017-09-25T11:33:02.580Z,8.50
2017-09-25T11:35:30.171Z,8.83
2017-09-25T11:37:57.741Z,7.80
2017-09-25T11:40:25.342Z,8.50
2017-09-25T11:42:52.900Z,8.73
2017-09-25T11:45:20.790Z,8.50
2017-09-25T11:47:48.385Z,8.70
2017-09-25T11:50:15.955Z,8.20
2017-09-25T11:52:43.550Z,7.90
2017-09-25T11:55:11.134Z,8.63
2017-09-25T11:57:38.711Z,7.57
2017-09-25T12:00:07.045Z,8.33
2017-09-25T12:02:34.626Z,7.70
2017-09-25T12:05:02.332Z,8.57
2017-09-25T12:07:30.259Z,7.60
2017-09-25T12:09:57.825Z,7.67
2017-09-25T12:12:25.413Z,8.90
2017-09-25T12:14:52.990Z,8.50
2017-09-25T12:17:20.558Z,9.30
2017-09-25T12:19:48.122Z,8.57
2017-09-25T12:22:15.698Z,7.53
2017-09-25T12:24:43.316Z,8.17
2017-09-25T12:27:10.879Z,8.60
2017-09-25T12:29:38.493Z,9.63
2017-09-25T12:32:06.059Z,8.30
2017-09-25T12:34:34.722Z,12.33
2017-09-25T12:37:02.303Z,9.00
2017-09-25T12:39:29.877Z,8.63
2017-09-25T12:41:58.221Z,10.60
2017-09-25T12:44:25.786Z,12.40
2017-09-25T12:47:02.559Z,9.50
2017-09-25T12:49:30.176Z,9.10
2017-09-25T12:51:57.776Z,9.50
2017-09-25T12:54:25.351Z,8.90
2017-09-25T12:56:52.913Z,10.47
2017-09-25T12:59:20.475Z,9.23
2017-09-25T13:01:49.113Z,9.33
2017-09-25T13:04:16.671Z,8.57
2017-09-25T13:07:43.380Z,8.67
2017-09-25T13:10:12.333Z,10.00
2017-09-25T13:12:40.517Z,8.77
2017-09-25T13:15:08.688Z,8.23
2017-09-25T13:17:36.866Z,7.10
2017-09-25T13:20:05.046Z,7.53
2017-09-25T13:22:33.605Z,6.70
2017-09-25T13:25:01.767Z,7.30
2017-09-25T13:27:29.929Z,7.37
2017-09-25T13:29:58.098Z,6.33
2017-09-25T13:32:26.291Z,6.67
2017-09-25T13:34:54.467Z,6.07
2017-09-25T13:37:22.655Z,7.87
2017-09-25T13:39:50.881Z,10.40
2017-09-25T13:42:19.055Z,7.80
2017-09-25T13:44:47.233Z,8.97
2017-09-25T13:47:15.426Z,13.73
2017-09-25T13:49:43.579Z,9.07
2017-09-25T13:52:11.752Z,9.50
2017-09-25T13:54:39.907Z,12.80
2017-09-25T13:57:08.072Z,17.23
2017-09-25T14:04:44.042Z,10.20
2017-09-25T14:07:12.206Z,10.53
2017-09-25T14:09:40.375Z,10.50
2017-09-25T14:12:08.543Z,10.77
2017-09-25T14:14:36.719Z,11.03
2017-09-25T14:17:04.900Z,10.97
2017-09-25T14:19:33.066Z,10.40
2017-09-25T14:22:01.253Z,10.67
2017-09-25T14:24:29.440Z,10.67
2017-09-25T14:26:58.375Z,10.10
2017-09-25T14:29:26.536Z,10.03
2017-09-25T14:31:54.735Z,12.63
2017-09-25T14:34:22.904Z,10.97
2017-09-25T14:36:51.088Z,10.23
2017-09-25T14:39:19.265Z,10.17
2017-09-25T14:41:47.434Z,9.57
2017-09-25T14:44:15.586Z,10.07
2017-09-25T14:46:43.776Z,9.50
2017-09-25T14:49:12.049Z,11.27
2017-09-25T14:51:40.205Z,10.37
2017-09-25T14:54:08.383Z,8.70
2017-09-25T14:56:36.561Z,10.67
2017-09-25T14:59:04.770Z,11.63
2017-09-25T15:01:32.961Z,12.80
2017-09-25T15:04:01.909Z,14.87
2017-09-25T15:06:30.072Z,11.93
2017-09-25T15:08:58.242Z,11.27
2017-09-25T15:11:26.437Z,11.10
2017-09-25T15:13:54.608Z,10.77
2017-09-25T15:16:22.771Z,11.23
2017-09-25T15:18:50.951Z,12.80
2017-09-25T15:21:19.115Z,10.77
2017-09-25T15:23:47.357Z,12.60
2017-09-25T15:26:15.544Z,11.93
2017-09-25T15:28:43.752Z,10.70
2017-09-25T15:31:11.925Z,11.67
2017-09-25T15:33:40.580Z,10.80
2017-09-25T15:36:08.759Z,10.83
2017-09-25T15:38:37.274Z,12.30
2017-09-25T15:41:05.463Z,11.50
2017-09-25T15:43:34.457Z,12.50
2017-09-25T15:46:03.402Z,13.57
2017-09-25T15:48:31.644Z,13.30
2017-09-25T15:50:59.829Z,11.67
2017-09-25T15:53:28.026Z,11.70
2017-09-25T15:55:56.322Z,12.40
2017-09-25T15:58:24.503Z,11.60
2017-09-25T16:00:52.700Z,13.40
2017-09-25T16:03:20.906Z,12.47
2017-09-25T16:05:49.262Z,12.30
2017-09-25T16:08:17.536Z,12.70
2017-09-25T16:10:45.729Z,13.30
2017-09-25T16:13:13.999Z,15.53
2017-09-25T16:15:42.184Z,17.60
2017-09-25T16:18:11.120Z,16.77
2017-09-25T16:20:39.309Z,15.73
2017-09-25T16:23:07.526Z,14.80
2017-09-25T16:25:35.996Z,14.90
2017-09-25T16:28:04.185Z,14.60
2017-09-25T16:30:32.383Z,16.50
2017-09-25T16:33:01.389Z,15.17
2017-09-25T16:35:29.575Z,16.00
2017-09-25T16:37:57.754Z,15.33
2017-09-25T16:40:25.921Z,15.73
2017-09-25T16:42:54.124Z,15.40
2017-09-25T16:45:22.382Z,15.00
2017-09-25T16:47:50.559Z,15.13
2017-09-25T16:50:19.869Z,15.70
2017-09-25T16:52:48.081Z,14.73
2017-09-25T16:55:17.039Z,17.23
2017-09-25T16:57:45.198Z,15.37
2017-09-25T17:00:13.359Z,16.58
2017-09-25T17:02:41.597Z,15.77
2017-09-25T17:05:09.797Z,16.93
2017-09-25T17:07:37.991Z,17.95
2017-09-25T17:10:06.185Z,21.40
2017-09-25T17:12:34.653Z,19.30
2017-09-25T17:15:02.819Z,19.83
2017-09-25T17:17:31.036Z,18.33
2017-09-25T17:20:00.036Z,18.70
2017-09-25T17:22:29.008Z,19.57
2017-09-25T17:24:57.999Z,17.23
2017-09-25T17:27:27.016Z,16.90
2017-09-25T17:29:55.206Z,15.67
2017-09-25T17:32:23.569Z,16.33
2017-09-25T17:34:51.810Z,16.17
2017-09-25T17:37:20.023Z,15.50
2017-09-25T17:39:48.195Z,14.80
2017-09-25T17:42:16.407Z,14.67
2017-09-25T17:44:44.607Z,16.63
2017-09-25T17:47:12.900Z,14.73
2017-09-25T17:49:41.101Z,15.20
2017-09-25T17:52:09.303Z,16.50
2017-09-25T17:54:38.259Z,15.27
2017-09-25T17:57:06.661Z,16.13
2017-09-25T17:59:35.897Z,20.23
2017-09-25T18:02:04.094Z,19.67
2017-09-25T18:04:32.288Z,17.37
2017-09-25T18:07:00.474Z,18.15
2017-09-25T18:09:29.488Z,15.50
2017-09-25T18:11:57.663Z,16.77
2017-09-25T18:14:25.948Z,18.10
2017-09-25T18:16:54.192Z,22.60
2017-09-25T18:19:22.411Z,24.07
2017-09-25T18:21:50.598Z,21.70
2017-09-25T18:24:19.820Z,17.43
2017-09-25T18:26:48.785Z,17.20
2017-09-25T18:29:17.704Z,19.93
2017-09-25T18:31:46.692Z,16.87
2017-09-25T18:34:14.973Z,15.20
2017-09-25T18:36:43.226Z,16.62
2017-09-25T18:39:11.483Z,16.27
2017-09-25T18:41:39.691Z,15.55
2017-09-25T18:44:07.970Z,18.90
2017-09-25T18:46:37.383Z,18.77
2017-09-25T18:49:05.626Z,18.23
2017-09-25T18:51:33.814Z,18.62
2017-09-25T18:54:02.025Z,17.03
2017-09-25T18:56:30.286Z,16.35
2017-09-25T18:58:58.508Z,19.75
2017-09-25T19:01:26.766Z,21.62
2017-09-25T19:03:54.985Z,18.67
2017-09-25T19:06:23.204Z,20.30
2017-09-25T19:08:51.406Z,19.47
2017-09-25T19:11:19.746Z,16.73
2017-09-25T19:13:47.992Z,16.63
2017-09-25T19:16:16.956Z,17.17
2017-09-25T19:18:45.333Z,18.97
2017-09-25T19:21:13.512Z,18.40
2017-09-25T19:23:41.707Z,21.75
2017-09-25T19:26:10.700Z,17.45
2017-09-25T19:28:38.905Z,18.07
2017-09-25T19:31:07.140Z,18.92
2017-09-25T19:33:35.776Z,17.73
2017-09-25T19:36:04.158Z,17.40
2017-09-25T19:38:33.914Z,17.07
2017-09-25T19:41:02.107Z,18.67
2017-09-25T19:43:31.066Z,16.43
2017-09-25T19:45:59.298Z,16.50
2017-09-25T19:51:26.423Z,16.95
2017-09-25T19:53:59.348Z,17.27
2017-09-25T19:56:29.953Z,16.70
2017-09-25T19:58:58.172Z,17.07
2017-09-25T20:01:26.437Z,18.95
2017-09-25T20:03:54.636Z,18.40
2017-09-25T20:06:22.866Z,18.42
2017-09-25T20:08:51.057Z,20.70
2017-09-25T20:11:34.146Z,18.30
2017-09-25T20:17:00.543Z,19.80
2017-09-25T20:19:28.892Z,18.60
2017-09-25T20:21:57.625Z,22.55
2017-09-25T20:24:25.822Z,21.45
2017-09-25T20:26:54.789Z,20.23
2017-09-25T20:29:22.969Z,21.97
2017-09-25T20:31:51.182Z,20.58
2017-09-25T20:34:20.145Z,20.03
2017-09-25T20:36:48.502Z,23.58
2017-09-25T20:39:16.758Z,20.98
2017-09-25T20:41:54.843Z,23.02
2017-09-25T20:44:23.036Z,20.30
2017-09-25T20:46:51.274Z,27.75
2017-09-25T20:49:20.189Z,20.90
2017-09-25T20:51:48.473Z,21.90
2017-09-25T20:54:16.692Z,26.00
2017-09-25T20:56:45.629Z,20.90
2017-09-25T20:59:13.803Z,24.53
2017-09-25T21:01:41.977Z,25.35
2017-09-25T21:04:10.471Z,24.50
2017-09-25T21:06:38.644Z,21.50
2017-09-25T21:09:06.815Z,25.20
2017-09-25T21:11:34.978Z,22.90
2017-09-25T21:14:03.150Z,21.37
2017-09-25T21:16:31.333Z,23.10
2017-09-25T21:18:59.544Z,22.37
2017-09-25T21:21:27.760Z,24.75
2017-09-25T21:23:56.007Z,25.90
2017-09-25T21:29:22.146Z,23.83
2017-09-25T21:31:51.150Z,22.85
2017-09-25T21:34:20.091Z,21.23
2017-09-25T21:36:48.362Z,21.00
2017-09-25T21:39:16.630Z,19.70
2017-09-25T21:41:45.212Z,19.65
2017-09-25T21:44:13.415Z,21.17
2017-09-25T21:46:42.373Z,22.08
2017-09-25T21:49:10.548Z,22.83
2017-09-25T21:51:39.496Z,23.42
2017-09-25T21:54:07.788Z,23.43
2017-09-25T21:56:35.959Z,23.73
2017-09-25T21:59:04.181Z,23.20
2017-09-25T22:01:33.132Z,23.83
2017-09-25T22:04:01.608Z,22.70
2017-09-25T22:06:29.771Z,24.35
2017-09-25T22:08:57.943Z,24.87
2017-09-25T22:11:26.382Z,23.20
2017-09-25T22:13:54.556Z,23.27
2017-09-25T22:16:22.754Z,23.55
2017-09-25T22:18:51.696Z,26.55
2017-09-25T22:21:20.174Z,24.17
2017-09-25T22:23:50.022Z,28.07
2017-09-25T22:26:18.979Z,25.90
2017-09-25T22:28:47.238Z,24.77
2017-09-25T22:31:15.410Z,22.30
2017-09-25T22:33:43.608Z,20.63
2017-09-25T22:36:12.722Z,24.70
2017-09-25T22:38:40.921Z,28.47
2017-09-25T22:41:09.084Z,22.92
2017-09-25T22:43:53.080Z,24.77
2017-09-25T22:46:21.264Z,21.52
2017-09-25T22:48:49.721Z,21.43
2017-09-25T22:51:17.895Z,24.30
2017-09-25T22:53:46.319Z,20.90
2017-09-25T22:56:14.502Z,20.55
2017-09-25T22:58:43.457Z,18.70
2017-09-25T23:01:11.672Z,20.00
2017-09-25T23:03:44.625Z,22.00
2017-09-25T23:06:12.863Z,19.95
2017-09-25T23:08:41.034Z,20.73
2017-09-25T23:13:43.671Z,21.30
2017-09-25T23:16:12.150Z,17.52
2017-09-25T23:18:40.327Z,20.07
2017-09-25T23:21:08.501Z,19.58
2017-09-25T23:23:36.733Z,17.90
2017-09-25T23:26:04.903Z,17.50
2017-09-25T23:28:33.082Z,17.33
2017-09-25T23:31:01.355Z,17.25
2017-09-25T23:33:29.532Z,17.53
2017-09-25T23:35:57.694Z,17.48
2017-09-25T23:38:25.895Z,23.30
2017-09-25T23:40:54.061Z,17.65
2017-09-25T23:43:22.523Z,18.60
2017-09-25T23:45:50.699Z,15.93
2017-09-25T23:48:18.871Z,17.23
2017-09-25T23:50:47.059Z,17.52
2017-09-25T23:53:15.231Z,19.40
2017-09-25T23:55:43.411Z,17.12
2017-09-25T23:58:11.555Z,18.60
